Shelby, NC

12:18 PM EST on March 01, 2015 (GMT -0500)
North Shelby | Change Station
CLOSE
Current Station
Personal Weather Station
Location: Shelby, NC
Elevation: 863 ft
Nearby Weather Stations

Elev 863 ft 35.31 °N, 81.54 °W | Updated 5 minutes ago

Overcast
Overcast
37.5 °F
Feels Like 38 °F
N
0.0
Wind Variable Wind from NNW
Gusts 2.0 mph

Today
High -- | Low -- °F
--% Chance of Precip.
Yesterday
High -- | Low -- °F
Precip. -- in
6:56 AM 6:21 PM
Waxing Gibbous, 86% visible
Pressure 30.50 in
Visibility 4.0 miles
Clouds Overcast 500 ft
Windchill 38 °F
Dew Point 32 °F
Humidity 79%
Rainfall 0.10 in
Snow Depth Not available.
UV 2 out of 12
Pollen 1.60 out of 12
Air Quality Not available.
Flu Activity Not available.
METAR KEHO 011715Z AUTO 01004KT 4SM BR OVC005 03/02 A3050 RMK AO2 T00260019

More Conditions Fewer Conditions

Pressure 30.50 in
Visibility 4.0 miles
Clouds Overcast 500 ft
Windchill 38 °F
Dew Point 32 °F
Humidity 79%
Rainfall 0.10 in
Snow Depth Not available.
UV 2 out of 12
Pollen 1.60 out of 12
Air Quality Not available.
Flu Activity Not available.
METAR KEHO 011715Z AUTO 01004KT 4SM BR OVC005 03/02 A3050 RMK AO2 T00260019

More Conditions Fewer Conditions

10-Day Weather Forecast

Almanac

Astronomy

Mar. 01, 2015 Rise Set
Actual Time
Civil Twilight
Nautical Twilight
Astronomical Twilight
Moon
Length of Visible Light
Length of Day
Tomorrow will be .
, % of the Moon is Illuminated

Today's Extremes

State Highs State Lows

Community

WunderPhotos

Upload Photos

1,801,470 photos uploaded!

WunderBlogs® & News

Nearby

Air Quality

  Air Quality AQ Index Pollutant
Not available.

Snow Depth

Station Depth Elevation

Earthquake Activity

City Distance Mag. Time & Date
Minimum magnitude displayed is 2.5.

Coastal Water Temperatures

Place Temperature

Nearby Weather Stations